Time;durP1;ratioP1;P1;durP2;ratioP2;P2;SDS_P1;SDS_P2;PMS_P1;PMS_P2;Temp;Humidity;BMP_temperature;BMP_pressure;BME280_temperature;BME280_humidity;BME280_pressure;Samples;Min_cycle;Max_cycle;Signal;HPM_P1;HPM_P2
2022/07/14 00:00:55;;;;;;;5.28;1.60;;;;;;;16.33;100.00;98937.91;1698641;84;20972;-73
2022/07/14 00:03:22;;;;;;;9.50;2.47;;;;;;;16.34;100.00;98943.59;1697942;84;21083;-74
2022/07/14 00:05:52;;;;;;;1.65;1.55;;;;;;;16.36;100.00;98945.42;1684601;84;21089;-73
2022/07/14 00:08:19;;;;;;;1.95;1.47;;;;;;;16.38;100.00;98955.98;1698495;84;21002;-74
2022/07/14 00:10:47;;;;;;;6.30;1.30;;;;;;;16.38;99.96;98943.22;1698876;84;21177;-72
2022/07/14 00:13:14;;;;;;;1.57;1.47;;;;;;;16.40;99.83;98948.35;1698812;83;21003;-74
2022/07/14 00:15:42;;;;;;;6.10;1.37;;;;;;;16.39;99.80;98948.09;1698974;84;21328;-73
2022/07/14 00:18:09;;;;;;;3.15;1.62;;;;;;;16.38;99.75;98958.70;1698907;84;20982;-74
2022/07/14 00:20:36;;;;;;;1.12;1.02;;;;;;;16.37;99.92;98970.10;1698630;83;21018;-74
2022/07/14 00:23:04;;;;;;;2.77;1.30;;;;;;;16.37;99.90;98966.03;1684111;84;21087;-73
2022/07/14 00:25:33;;;;;;;1.72;1.62;;;;;;;16.39;99.97;98964.37;1698696;84;20928;-74
2022/07/14 00:28:00;;;;;;;3.20;1.20;;;;;;;16.37;99.90;98972.81;1684729;84;21046;-75
2022/07/14 00:30:27;;;;;;;4.53;1.25;;;;;;;16.37;99.77;98965.22;1698973;84;21551;-73
2022/07/14 00:32:54;;;;;;;1.25;1.15;;;;;;;16.38;99.76;98979.86;1687185;84;22154;-74
2022/07/14 00:35:21;;;;;;;2.75;1.62;;;;;;;16.40;99.67;98970.06;1681530;84;21091;-73
2022/07/14 00:37:48;;;;;;;16.75;1.62;;;;;;;16.40;99.45;98974.13;1681832;85;20990;-73
2022/07/14 00:40:14;;;;;;;2.02;1.80;;;;;;;16.43;99.41;98967.53;1665994;85;21081;-75
2022/07/14 00:42:48;;;;;;;1.60;1.50;;;;;;;16.45;99.20;98967.23;1680563;85;21069;-74
2022/07/14 00:45:17;;;;;;;6.35;1.72;;;;;;;16.43;98.92;98974.32;1680787;85;21109;-74
2022/07/14 00:47:46;;;;;;;2.30;2.10;;;;;;;16.43;98.70;98973.52;1691195;84;21142;-74
2022/07/14 00:50:15;;;;;;;1.67;1.57;;;;;;;16.38;98.21;98973.08;1680895;84;21107;-72
2022/07/14 00:52:43;;;;;;;2.25;1.92;;;;;;;16.37;98.26;98970.10;1672811;85;21573;-74
2022/07/14 00:55:13;;;;;;;2.95;2.02;;;;;;;16.37;98.33;98982.31;1682634;85;21510;-73
2022/07/14 00:57:40;;;;;;;4.10;2.30;;;;;;;16.37;98.18;98976.08;1691239;84;20940;-71
2022/07/14 01:00:09;;;;;;;1.60;1.45;;;;;;;16.39;98.11;98976.04;1687096;84;21282;-71
2022/07/14 01:02:37;;;;;;;3.45;1.55;;;;;;;16.40;97.92;98983.05;1685932;84;20970;-74
2022/07/14 01:05:06;;;;;;;5.67;1.80;;;;;;;16.41;97.71;98991.45;1685586;85;20991;-73
2022/07/14 01:07:33;;;;;;;2.67;1.80;;;;;;;16.42;97.31;98984.92;1685735;85;21055;-73
2022/07/14 01:10:00;;;;;;;3.75;1.57;;;;;;;16.42;97.30;98984.92;1685985;85;21639;-73
2022/07/14 01:12:27;;;;;;;1.60;1.30;;;;;;;16.41;97.26;98980.59;1685769;85;21661;-74
2022/07/14 01:14:55;;;;;;;4.60;1.98;;;;;;;16.40;97.21;98989.06;1685642;84;21030;-72
2022/07/14 01:17:23;;;;;;;3.05;1.80;;;;;;;16.36;97.25;98992.91;1668337;85;22442;-74
2022/07/14 01:19:53;;;;;;;3.05;2.10;;;;;;;16.36;97.40;98998.34;1685587;84;21048;-73
2022/07/14 01:22:20;;;;;;;7.17;1.60;;;;;;;16.35;97.37;99002.19;1685350;84;21051;-73
2022/07/14 01:24:47;;;;;;;2.65;1.98;;;;;;;16.37;97.27;98995.88;1685625;84;21885;-77
2022/07/14 01:27:14;;;;;;;1.67;1.27;;;;;;;16.37;97.14;98996.44;1668001;85;20941;-74
2022/07/14 01:29:42;;;;;;;7.05;2.10;;;;;;;16.38;97.03;98992.07;1684941;84;21050;-74
2022/07/14 01:32:09;;;;;;;1.77;1.50;;;;;;;16.39;96.95;98990.16;1685769;84;21098;-76
2022/07/14 01:34:39;;;;;;;3.22;2.00;;;;;;;16.39;96.93;98995.04;1685609;85;21566;-75
2022/07/14 01:37:07;;;;;;;1.85;1.75;;;;;;;16.36;97.09;98998.89;1685520;85;21120;-74
2022/07/14 01:39:33;;;;;;;2.27;1.90;;;;;;;16.33;97.34;98992.73;1685711;85;20995;-76
2022/07/14 01:42:01;;;;;;;4.72;1.72;;;;;;;16.32;97.72;98991.11;1685784;84;21521;-77
2022/07/14 01:44:29;;;;;;;1.75;1.62;;;;;;;16.29;98.21;99000.69;1685594;84;21085;-74
2022/07/14 01:46:58;;;;;;;1.42;1.32;;;;;;;16.27;98.65;98997.45;1685569;85;21077;-74
2022/07/14 01:49:25;;;;;;;2.02;1.47;;;;;;;16.24;99.24;99003.50;1685677;84;21184;-78
2022/07/14 01:51:53;;;;;;;1.90;1.57;;;;;;;16.23;99.65;99003.25;1685672;85;20988;-75
2022/07/14 01:54:21;;;;;;;1.85;1.47;;;;;;;16.22;100.00;99002.99;1685389;84;20969;-73
2022/07/14 01:56:48;;;;;;;3.83;1.70;;;;;;;16.20;100.00;99017.98;1667960;85;21065;-75
2022/07/14 01:59:17;;;;;;;3.87;1.42;;;;;;;16.20;100.00;99010.64;1686007;84;20985;-77
2022/07/14 02:01:46;;;;;;;1.65;1.55;;;;;;;16.18;100.00;99013.39;1685939;84;21179;-77
2022/07/14 02:04:19;;;;;;;1.82;1.72;;;;;;;16.17;100.00;99018.02;1686077;85;20977;-74
2022/07/14 02:06:52;;;;;;;4.62;1.87;;;;;;;16.18;100.00;99020.17;1685962;84;21016;-75
2022/07/14 02:12:23;;;;;;;2.90;1.60;;;;;;;16.20;100.00;99031.00;1685749;84;21066;-73
2022/07/14 02:14:51;;;;;;;4.30;2.30;;;;;;;16.21;100.00;99028.51;1667319;85;21172;-75
2022/07/14 02:17:18;;;;;;;1.67;1.45;;;;;;;16.19;100.00;99029.94;1685622;84;21138;-75
2022/07/14 02:19:45;;;;;;;3.08;2.25;;;;;;;16.15;100.00;99040.59;1685639;84;21115;-74
2022/07/14 02:22:12;;;;;;;7.33;2.37;;;;;;;16.13;100.00;99048.22;1685363;84;21092;-75
2022/07/14 02:24:38;;;;;;;5.30;2.77;;;;;;;16.12;100.00;99045.25;1685981;85;21069;-74
2022/07/14 02:27:05;;;;;;;2.92;1.75;;;;;;;16.13;100.00;99042.24;1685841;85;21168;-76
2022/07/14 02:29:33;;;;;;;2.25;1.50;;;;;;;16.14;100.00;99043.05;1685857;84;21113;-74
2022/07/14 02:32:00;;;;;;;2.17;1.60;;;;;;;16.15;100.00;99043.30;1685394;84;21077;-76
2022/07/14 02:34:29;;;;;;;1.98;1.67;;;;;;;16.15;100.00;99041.95;1683930;85;21037;-72
2022/07/14 02:36:55;;;;;;;4.62;2.35;;;;;;;16.16;100.00;99048.19;1657622;85;21092;-75
2022/07/14 02:39:24;;;;;;;4.50;1.70;;;;;;;16.17;100.00;99056.55;1673962;85;21163;-74
2022/07/14 02:41:50;;;;;;;3.95;1.60;;;;;;;16.19;100.00;99057.06;1674043;85;21029;-75
2022/07/14 02:44:19;;;;;;;4.85;1.32;;;;;;;16.21;100.00;99060.29;1686524;84;21564;-73
2022/07/14 02:46:45;;;;;;;3.33;2.00;;;;;;;16.23;100.00;99068.36;1682757;84;21103;-74
2022/07/14 02:49:13;;;;;;;2.27;1.52;;;;;;;16.24;100.00;99075.41;1682628;85;21561;-76
2022/07/14 02:51:44;;;;;;;4.10;1.85;;;;;;;16.24;99.92;99073.24;1671601;85;21260;-74
2022/07/14 02:54:11;;;;;;;2.72;1.65;;;;;;;16.21;99.59;99069.20;1678234;85;21037;-75
2022/07/14 02:56:38;;;;;;;4.08;2.30;;;;;;;16.20;99.37;99069.53;1682747;85;21392;-74
2022/07/14 02:59:06;;;;;;;3.45;1.35;;;;;;;16.20;99.23;99077.67;1682710;85;21183;-75
2022/07/14 03:01:34;;;;;;;2.62;1.75;;;;;;;16.18;98.92;99075.80;1666848;85;21061;-78
2022/07/14 03:04:03;;;;;;;3.33;1.90;;;;;;;16.17;98.81;99091.82;1667025;85;22397;-74
2022/07/14 03:06:31;;;;;;;3.60;1.90;;;;;;;16.18;98.77;99093.44;1673074;85;21040;-76
2022/07/14 03:08:58;;;;;;;2.67;1.98;;;;;;;16.17;98.55;99087.20;1668446;85;21031;-74
2022/07/14 03:11:25;;;;;;;2.70;2.08;;;;;;;16.17;98.50;99100.77;1679826;85;20981;-75
2022/07/14 03:13:53;;;;;;;2.05;1.70;;;;;;;16.19;98.37;99085.55;1682699;85;21001;-75
2022/07/14 03:16:19;;;;;;;2.00;1.80;;;;;;;16.19;98.25;99086.36;1674069;85;21678;-74
2022/07/14 03:18:49;;;;;;;2.90;1.72;;;;;;;16.21;98.16;99088.78;1662390;85;21532;-74
2022/07/14 03:21:16;;;;;;;2.15;1.72;;;;;;;16.21;97.93;99097.70;1679676;85;21024;-73
2022/07/14 03:23:45;;;;;;;2.75;1.60;;;;;;;16.23;97.78;99098.77;1670981;85;21085;-74
2022/07/14 03:26:15;;;;;;;1.60;1.50;;;;;;;16.25;97.62;99093.85;1682806;85;21587;-74
2022/07/14 03:28:42;;;;;;;5.55;1.57;;;;;;;16.30;97.61;99101.89;1680135;84;22023;-74
2022/07/14 03:31:10;;;;;;;1.82;1.72;;;;;;;16.32;97.26;99092.33;1668132;85;21107;-74
2022/07/14 03:33:37;;;;;;;1.92;1.72;;;;;;;16.36;97.10;99104.73;1684527;84;21056;-72
2022/07/14 03:36:05;;;;;;;3.12;1.40;;;;;;;16.38;96.82;99110.68;1698660;84;21582;-74
2022/07/14 03:38:33;;;;;;;1.75;1.50;;;;;;;16.38;96.78;99117.47;1698521;84;21540;-72
2022/07/14 03:41:03;;;;;;;1.80;1.70;;;;;;;16.37;96.82;99105.00;1698837;84;21238;-74
2022/07/14 03:43:31;;;;;;;2.15;1.65;;;;;;;16.35;96.85;99121.60;1698723;84;21641;-74
2022/07/14 03:45:59;;;;;;;4.83;1.50;;;;;;;16.35;96.87;99122.96;1698550;84;20987;-74
2022/07/14 03:48:26;;;;;;;4.35;1.92;;;;;;;16.38;96.83;99135.11;1698234;84;21529;-74
2022/07/14 03:50:55;;;;;;;1.20;1.20;;;;;;;16.39;96.77;99131.30;1697847;83;21509;-75
2022/07/14 03:53:22;;;;;;;1.62;1.52;;;;;;;16.41;96.68;99126.35;1698626;83;21013;-75
2022/07/14 03:55:51;;;;;;;2.87;1.87;;;;;;;16.42;96.53;99132.84;1698376;84;21583;-77
2022/07/14 03:58:18;;;;;;;1.60;1.50;;;;;;;16.42;96.14;99135.56;1698363;84;21039;-75
2022/07/14 04:00:45;;;;;;;1.47;1.37;;;;;;;16.42;95.91;99145.61;1698889;84;21059;-77
2022/07/14 04:03:12;;;;;;;6.62;1.50;;;;;;;16.40;95.66;99141.05;1699027;84;21532;-76
2022/07/14 04:05:39;;;;;;;1.67;1.12;;;;;;;16.37;95.47;99142.99;1698712;84;22019;-76
2022/07/14 04:08:09;;;;;;;2.20;1.22;;;;;;;16.34;95.48;99148.48;1684579;84;21042;-75
2022/07/14 04:10:42;;;;;;;1.32;1.22;;;;;;;16.33;95.38;99154.20;1697778;83;21022;-77
2022/07/14 04:13:09;;;;;;;1.82;1.72;;;;;;;16.29;95.17;99149.94;1698510;84;21060;-75
2022/07/14 04:15:38;;;;;;;2.12;1.92;;;;;;;16.29;95.34;99162.70;1698868;84;21089;-77
2022/07/14 04:18:06;;;;;;;1.55;1.45;;;;;;;16.28;95.28;99161.89;1698753;84;20911;-76
2022/07/14 04:20:36;;;;;;;2.25;1.65;;;;;;;16.30;95.39;99177.33;1684130;84;20980;-76
2022/07/14 04:23:04;;;;;;;2.60;1.45;;;;;;;16.33;95.25;99156.92;1698846;84;21019;-79
2022/07/14 04:25:31;;;;;;;2.20;2.02;;;;;;;16.37;94.87;99170.94;1698452;84;21013;-76
2022/07/14 04:27:59;;;;;;;1.87;1.65;;;;;;;16.38;94.60;99174.46;1698806;84;21577;-73
2022/07/14 04:30:27;;;;;;;5.17;1.77;;;;;;;16.38;94.41;99164.41;1684192;84;21080;-79
2022/07/14 04:32:55;;;;;;;3.62;2.52;;;;;;;16.37;94.09;99182.34;1684632;84;21079;-76
2022/07/14 04:35:21;;;;;;;1.52;1.42;;;;;;;16.34;93.88;99176.17;1698597;84;21046;-78
2022/07/14 04:37:48;;;;;;;3.27;1.67;;;;;;;16.34;93.94;99183.77;1698673;84;21085;-81
2022/07/14 04:40:20;;;;;;;2.72;2.52;;;;;;;16.35;93.92;99183.22;1697603;83;21520;-76
2022/07/14 04:42:47;;;;;;;2.00;1.90;;;;;;;16.35;93.82;99186.73;1684663;84;21094;-77
2022/07/14 04:45:14;;;;;;;1.85;1.75;;;;;;;16.35;93.86;99185.93;1698611;84;21536;-76
2022/07/14 04:47:41;;;;;;;3.10;1.55;;;;;;;16.31;93.73;99188.41;1698683;84;21096;-76
2022/07/14 04:52:55;;;;;;;2.17;1.60;;;;;;;16.32;93.59;99200.89;1686976;84;21034;-79
2022/07/14 04:55:36;;;;;;;1.60;1.50;;;;;;;16.31;93.26;99200.63;1697395;83;21176;-79
2022/07/14 04:58:05;;;;;;;1.35;1.25;;;;;;;16.32;93.27;99201.44;1697926;83;21764;-78
2022/07/14 05:00:32;;;;;;;2.92;1.82;;;;;;;16.33;93.12;99201.14;1698557;84;21555;-78
2022/07/14 05:03:00;;;;;;;4.42;1.47;;;;;;;16.34;93.13;99203.31;1698719;83;21121;-79
2022/07/14 05:05:28;;;;;;;1.62;1.52;;;;;;;16.35;92.70;99207.09;1698612;84;21066;-77
2022/07/14 05:07:54;;;;;;;1.72;1.27;;;;;;;16.35;92.67;99214.42;1698614;84;21157;-78
2022/07/14 05:10:23;;;;;;;1.40;1.30;;;;;;;16.35;92.48;99210.36;1698018;83;21559;-77
2022/07/14 05:12:50;;;;;;;1.45;1.45;;;;;;;16.37;92.53;99218.44;1698419;84;20952;-77
2022/07/14 05:15:17;;;;;;;1.42;1.30;;;;;;;16.39;92.60;99221.67;1698741;84;21041;-77
2022/07/14 05:17:45;;;;;;;3.80;1.62;;;;;;;16.41;92.31;99231.66;1698610;84;21050;-77
2022/07/14 05:20:14;;;;;;;2.65;1.65;;;;;;;16.46;92.41;99230.76;1698358;84;21248;-77
2022/07/14 05:22:43;;;;;;;1.65;1.55;;;;;;;16.49;92.05;99236.42;1698652;84;21020;-76
2022/07/14 05:25:12;;;;;;;2.05;1.85;;;;;;;16.49;91.81;99233.70;1698388;83;21069;-77
2022/07/14 05:27:41;;;;;;;2.17;1.62;;;;;;;16.49;91.37;99236.42;1698269;84;21029;-76
2022/07/14 05:30:11;;;;;;;2.08;1.98;;;;;;;16.50;91.05;99241.27;1698316;83;21014;-75
2022/07/14 05:32:39;;;;;;;7.33;2.05;;;;;;;16.52;91.04;99242.59;1684989;84;22589;-74
2022/07/14 05:35:07;;;;;;;2.02;1.80;;;;;;;16.57;90.86;99233.00;1684082;84;21055;-76
2022/07/14 05:37:35;;;;;;;4.42;1.77;;;;;;;16.63;90.51;99238.37;1699224;84;21010;-77
2022/07/14 05:40:03;;;;;;;2.02;1.70;;;;;;;16.67;90.40;99238.02;1698335;84;21524;-77
2022/07/14 05:42:30;;;;;;;1.50;1.32;;;;;;;16.71;90.24;99246.61;1684196;84;21036;-79
2022/07/14 05:44:58;;;;;;;2.42;1.45;;;;;;;16.73;89.39;99249.04;1698891;84;21120;-79
2022/07/14 05:47:24;;;;;;;2.58;1.30;;;;;;;16.73;89.43;99257.19;1698142;84;21012;-75
2022/07/14 05:49:52;;;;;;;10.32;1.55;;;;;;;16.75;89.19;99253.59;1697770;84;21033;-75
2022/07/14 05:52:18;;;;;;;3.08;1.57;;;;;;;16.76;89.15;99259.29;1698776;84;21067;-77
2022/07/14 05:54:46;;;;;;;1.30;1.20;;;;;;;16.77;89.26;99249.49;1698677;84;21096;-77
2022/07/14 05:57:15;;;;;;;3.37;1.30;;;;;;;16.82;89.11;99254.02;1698794;84;21119;-79
2022/07/14 05:59:43;;;;;;;3.05;1.35;;;;;;;16.85;88.74;99257.48;1698723;84;21046;-77
2022/07/14 06:02:10;;;;;;;1.85;1.35;;;;;;;16.89;88.94;99255.77;1698899;84;21053;-76
2022/07/14 06:04:37;;;;;;;2.83;1.70;;;;;;;16.94;88.03;99267.89;1699023;84;21034;-75
2022/07/14 06:07:07;;;;;;;1.40;1.30;;;;;;;16.97;87.86;99274.91;1698582;83;21055;-76
2022/07/14 06:09:38;;;;;;;2.33;1.45;;;;;;;17.00;86.79;99257.99;1698435;84;21075;-75
2022/07/14 06:12:10;;;;;;;5.20;1.32;;;;;;;17.06;86.42;99273.64;1698873;84;21018;-74
2022/07/14 06:14:41;;;;;;;2.47;1.82;;;;;;;17.11;86.49;99254.52;1698691;84;21052;-74
2022/07/14 06:17:09;;;;;;;1.40;1.30;;;;;;;17.18;85.73;99267.68;1698599;84;21143;-74
2022/07/14 06:19:37;;;;;;;3.83;3.45;;;;;;;17.23;85.31;99275.73;1698776;84;21542;-74
2022/07/14 06:22:05;;;;;;;1.80;1.70;;;;;;;17.29;85.12;99264.46;1698751;84;21660;-76
2022/07/14 06:24:33;;;;;;;1.50;1.40;;;;;;;17.34;83.91;99264.36;1697525;84;21524;-73
2022/07/14 06:27:02;;;;;;;3.58;1.70;;;;;;;17.39;83.86;99264.80;1698777;84;21621;-75
2022/07/14 06:29:30;;;;;;;1.80;1.67;;;;;;;17.41;83.71;99255.21;1698609;84;21579;-75
2022/07/14 06:31:57;;;;;;;1.80;1.55;;;;;;;17.47;83.49;99265.43;1698653;84;21085;-75
2022/07/14 06:34:24;;;;;;;2.25;1.62;;;;;;;17.51;83.00;99263.70;1699720;84;21197;-74
2022/07/14 06:36:55;;;;;;;4.40;1.80;;;;;;;17.52;82.06;99278.11;1701323;83;21029;-76
2022/07/14 06:39:23;;;;;;;1.37;1.27;;;;;;;17.51;81.89;99277.30;1703064;83;21072;-73
2022/07/14 06:41:50;;;;;;;1.02;1.02;;;;;;;17.53;81.32;99281.08;1691072;83;21039;-74
2022/07/14 06:44:19;;;;;;;2.58;2.37;;;;;;;17.54;81.22;99275.34;1691048;83;21108;-75
2022/07/14 06:46:46;;;;;;;1.75;1.12;;;;;;;17.57;81.47;99296.48;1682710;84;21227;-76
2022/07/14 06:49:13;;;;;;;1.50;1.40;;;;;;;17.61;80.21;99277.66;1687337;84;20994;-74
2022/07/14 06:51:41;;;;;;;2.95;1.40;;;;;;;17.67;80.65;99273.73;1687221;85;20977;-76
2022/07/14 06:54:10;;;;;;;1.30;1.20;;;;;;;17.74;80.88;99280.37;1663017;85;21039;-75
2022/07/14 06:56:36;;;;;;;2.52;1.82;;;;;;;17.89;80.93;99282.48;1687255;84;21005;-75
2022/07/14 06:59:03;;;;;;;1.57;1.47;;;;;;;17.98;80.54;99277.36;1680533;85;21259;-75
2022/07/14 07:01:30;;;;;;;1.45;1.35;;;;;;;18.00;79.63;99292.81;1680501;85;21073;-75
2022/07/14 07:03:59;;;;;;;1.45;1.35;;;;;;;17.98;79.26;99286.08;1690528;83;21545;-79
2022/07/14 07:06:44;;;;;;;1.35;1.30;;;;;;;17.95;79.14;99280.69;1682988;84;21547;-76
2022/07/14 07:10:11;;;;;;;1.15;1.10;;;;;;;17.95;79.23;99297.02;1679275;85;21134;-78
2022/07/14 07:12:39;;;;;;;1.65;1.55;;;;;;;17.93;78.87;99296.53;1686834;84;21168;-74
2022/07/14 07:15:08;;;;;;;3.15;1.60;;;;;;;17.94;78.71;99282.38;1676936;85;20910;-75
2022/07/14 07:17:35;;;;;;;1.80;1.70;;;;;;;17.96;79.19;99282.85;1666294;85;21503;-75
2022/07/14 07:20:02;;;;;;;1.72;1.62;;;;;;;18.03;79.23;99273.72;1686990;84;21108;-76
2022/07/14 07:22:29;;;;;;;4.15;1.65;;;;;;;18.11;78.95;99306.44;1687603;85;21596;-76
2022/07/14 07:24:56;;;;;;;4.33;1.30;;;;;;;18.16;77.29;99271.48;1687348;85;21165;-76
2022/07/14 07:27:23;;;;;;;2.00;1.65;;;;;;;18.20;76.95;99289.61;1691018;84;20948;-75
2022/07/14 07:29:50;;;;;;;7.60;1.42;;;;;;;18.23;76.96;99298.50;1681194;84;21039;-76
2022/07/14 07:32:18;;;;;;;1.17;1.07;;;;;;;18.25;76.19;99288.12;1673221;85;21060;-75
2022/07/14 07:34:45;;;;;;;1.20;1.20;;;;;;;18.29;76.19;99278.22;1674985;85;21008;-76
2022/07/14 07:37:13;;;;;;;1.67;1.57;;;;;;;18.36;76.73;99276.42;1681477;85;21303;-75
2022/07/14 07:39:40;;;;;;;1.42;1.30;;;;;;;18.46;76.30;99290.34;1654188;86;20956;-74
2022/07/14 07:42:07;;;;;;;1.27;1.20;;;;;;;18.54;75.49;99277.35;1652906;85;21061;-75
2022/07/14 07:44:34;;;;;;;4.12;1.20;;;;;;;18.61;74.64;99291.31;1681397;85;20992;-76
2022/07/14 07:47:01;;;;;;;7.28;2.90;;;;;;;18.70;74.30;99297.64;1652933;86;21020;-73
2022/07/14 07:49:28;;;;;;;1.30;1.20;;;;;;;18.78;74.06;99285.97;1681345;84;21451;-75
2022/07/14 07:52:00;;;;;;;1.27;1.07;;;;;;;18.83;73.33;99291.84;1652689;86;21032;-74
2022/07/14 07:54:28;;;;;;;1.45;1.35;;;;;;;18.86;73.23;99311.09;1652718;86;20967;-73
2022/07/14 07:56:55;;;;;;;2.85;1.50;;;;;;;18.92;72.74;99318.57;1652857;86;21016;-78
2022/07/14 07:59:23;;;;;;;1.75;1.65;;;;;;;18.98;71.89;99296.33;1681461;85;20974;-76
2022/07/14 08:01:49;;;;;;;1.47;1.37;;;;;;;19.07;71.62;99303.98;1653162;85;21198;-79
2022/07/14 08:04:16;;;;;;;6.12;1.45;;;;;;;19.18;71.91;99298.23;1674818;84;21026;-77
2022/07/14 08:06:42;;;;;;;2.77;1.22;;;;;;;19.31;72.21;99282.31;1693478;84;20943;-77
2022/07/14 08:09:11;;;;;;;1.52;1.42;;;;;;;19.44;72.19;99307.31;1698762;84;21518;-76
2022/07/14 08:11:41;;;;;;;3.27;1.75;;;;;;;19.55;71.20;99299.08;1679715;84;21013;-79
2022/07/14 08:14:47;;;;;;;3.12;1.55;;;;;;;19.63;70.88;99302.94;1679397;84;21153;-77
2022/07/14 08:16:37;;;;;;;5.33;1.72;;;;;;;19.68;70.28;99299.49;1675488;85;20965;-80
2022/07/14 08:19:04;;;;;;;1.32;1.22;;;;;;;19.75;69.95;99301.77;1680419;85;21119;-78
2022/07/14 08:21:32;;;;;;;1.72;1.62;;;;;;;19.80;69.34;99298.88;1679744;85;21514;-74
2022/07/14 08:23:59;;;;;;;1.55;1.45;;;;;;;19.84;68.98;99293.82;1680092;85;22518;-75
2022/07/14 08:26:26;;;;;;;2.22;1.42;;;;;;;19.91;69.35;99294.69;1680135;85;21256;-74
2022/07/14 08:28:52;;;;;;;1.50;1.40;;;;;;;20.00;69.30;99291.39;1664149;85;21559;-75
2022/07/14 08:31:19;;;;;;;1.42;1.32;;;;;;;20.08;68.78;99286.52;1682019;83;20967;-75
2022/07/14 08:33:45;;;;;;;1.37;1.27;;;;;;;20.18;67.81;99305.86;1652743;85;20973;-75
2022/07/14 08:36:14;;;;;;;1.57;1.47;;;;;;;20.25;67.11;99306.16;1655955;84;21134;-73
2022/07/14 08:38:41;;;;;;;12.55;1.65;;;;;;;20.34;67.23;99291.96;1670759;84;21275;-75
2022/07/14 08:41:10;;;;;;;1.55;1.40;;;;;;;20.42;66.18;99300.72;1673429;85;20992;-75
2022/07/14 08:43:37;;;;;;;9.40;1.90;;;;;;;20.50;65.51;99293.06;1673720;85;21537;-76
2022/07/14 08:46:04;;;;;;;1.92;1.10;;;;;;;20.58;64.96;99287.33;1660355;85;21043;-74
2022/07/14 08:48:33;;;;;;;2.98;1.32;;;;;;;20.66;65.04;99293.36;1674691;85;20966;-75
2022/07/14 08:51:00;;;;;;;2.27;1.45;;;;;;;20.73;64.32;99301.84;1674736;85;21254;-74
2022/07/14 08:53:27;;;;;;;4.95;1.52;;;;;;;20.79;64.22;99300.55;1675167;84;21014;-74
2022/07/14 08:55:55;;;;;;;2.22;1.20;;;;;;;20.84;63.86;99292.16;1678861;84;20993;-77
2022/07/14 08:58:23;;;;;;;1.47;1.37;;;;;;;20.90;63.59;99292.23;1663881;84;21051;-76
2022/07/14 09:00:50;;;;;;;3.67;1.40;;;;;;;20.99;63.00;99287.53;1672646;84;20990;-76
2022/07/14 09:03:18;;;;;;;5.65;1.20;;;;;;;21.06;63.01;99296.56;1675371;84;21313;-79
2022/07/14 09:05:45;;;;;;;1.55;1.17;;;;;;;21.15;63.18;99302.27;1675467;85;21545;-78
2022/07/14 09:08:13;;;;;;;3.52;1.42;;;;;;;21.23;62.57;99293.80;1651561;85;21053;-79
2022/07/14 09:10:44;;;;;;;10.43;2.05;;;;;;;21.29;62.37;99314.37;1647273;87;21006;-80
2022/07/14 09:13:17;;;;;;;2.25;2.02;;;;;;;21.33;62.23;99298.09;1646721;86;21097;-76
2022/07/14 09:15:47;;;;;;;1.30;1.20;;;;;;;21.35;62.02;99316.33;1675442;84;21256;-75
2022/07/14 09:18:24;;;;;;;1.47;1.37;;;;;;;21.37;62.15;99303.94;1646549;85;21001;-74
2022/07/14 09:20:54;;;;;;;1.37;1.27;;;;;;;21.37;61.84;99310.78;1661637;86;21032;-75
2022/07/14 09:23:35;;;;;;;1.20;1.10;;;;;;;21.35;61.98;99306.75;1660115;85;21151;-74
2022/07/14 09:26:19;;;;;;;1.62;1.52;;;;;;;21.29;62.50;99316.52;1659912;85;21037;-74
2022/07/14 09:28:48;;;;;;;5.17;1.42;;;;;;;21.24;62.58;99307.16;1673803;85;21878;-75
2022/07/14 09:31:29;;;;;;;6.85;1.52;;;;;;;21.22;63.22;99307.23;1654216;85;21071;-74
2022/07/14 09:33:58;;;;;;;1.67;1.20;;;;;;;21.23;63.63;99312.95;1680692;84;21000;-75
2022/07/14 09:36:32;;;;;;;2.12;1.67;;;;;;;21.27;63.93;99302.38;1682717;85;21684;-76
2022/07/14 09:39:07;;;;;;;2.87;1.87;;;;;;;21.34;63.87;99299.70;1690405;84;21123;-76
2022/07/14 09:41:38;;;;;;;4.65;1.70;;;;;;;21.41;63.09;99293.94;1690187;84;21330;-76
2022/07/14 09:44:14;;;;;;;1.72;1.62;;;;;;;21.45;63.71;99297.61;1692283;83;20989;-76
2022/07/14 09:46:48;;;;;;;2.83;1.55;;;;;;;21.55;62.06;99310.11;1685044;83;21096;-77
2022/07/14 09:49:16;;;;;;;1.40;1.30;;;;;;;21.60;59.86;99320.86;1677464;85;21064;-75
2022/07/14 09:52:02;;;;;;;2.98;2.67;;;;;;;21.66;59.99;99300.38;1685346;84;21169;-75
2022/07/14 09:54:45;;;;;;;2.35;1.85;;;;;;;21.71;59.63;99315.25;1658444;85;21143;-75
2022/07/14 09:57:21;;;;;;;9.78;1.92;;;;;;;21.79;59.61;99308.09;1675465;84;20997;-76
2022/07/14 09:59:57;;;;;;;5.30;2.83;;;;;;;21.90;59.13;99299.72;1686366;85;20985;-77
2022/07/14 10:02:29;;;;;;;1.95;1.80;;;;;;;21.99;57.45;99325.94;1685933;83;21118;-76
2022/07/14 10:05:07;;;;;;;1.47;1.37;;;;;;;22.04;57.43;99329.84;1686063;84;21038;-76
2022/07/14 10:07:38;;;;;;;1.52;1.42;;;;;;;22.08;57.94;99313.53;1685440;83;21950;-77
2022/07/14 10:10:13;;;;;;;2.50;1.90;;;;;;;22.13;58.16;99319.62;1684335;83;20961;-74
2022/07/14 10:12:41;;;;;;;1.67;1.45;;;;;;;22.20;58.25;99302.66;1685956;85;21581;-88
2022/07/14 10:15:15;;;;;;;4.28;1.70;;;;;;;22.31;57.85;99298.34;1685585;84;21576;-88
2022/07/14 10:17:44;;;;;;;2.33;1.50;;;;;;;22.36;57.99;99298.13;1685745;85;21580;-75
2022/07/14 10:20:16;;;;;;;2.02;1.87;;;;;;;22.39;57.26;99321.33;1685716;85;21103;-76
2022/07/14 10:22:44;;;;;;;2.55;1.80;;;;;;;22.38;56.79;99315.05;1685210;84;21116;-81
2022/07/14 10:25:11;;;;;;;2.10;1.90;;;;;;;22.37;57.92;99328.52;1685905;84;21589;-89
2022/07/14 10:27:41;;;;;;;4.53;1.87;;;;;;;22.42;58.16;99326.12;1684811;84;20992;-79
2022/07/14 10:30:10;;;;;;;2.85;1.72;;;;;;;22.47;58.58;99304.80;1685696;84;21092;-83
2022/07/14 10:33:14;;;;;;;8.43;2.00;;;;;;;22.57;57.68;99330.98;1685547;84;21678;-87
2022/07/14 10:35:55;;;;;;;3.80;1.90;;;;;;;22.67;57.18;99294.92;1676405;85;21073;-84
2022/07/14 10:38:53;;;;;;;2.70;2.22;;;;;;;22.71;56.41;99316.43;1686616;83;21557;-85
2022/07/14 10:42:02;;;;;;;3.67;1.90;;;;;;;22.76;56.59;99325.81;1657661;86;21025;-85
2022/07/14 10:44:31;;;;;;;1.98;1.80;;;;;;;22.78;55.70;99310.41;1681742;84;35890;-77
2022/07/14 10:47:13;;;;;;;2.77;2.22;;;;;;;22.80;56.16;99318.51;1666921;85;21093;-77
2022/07/14 10:50:09;;;;;;;2.15;2.02;;;;;;;22.88;56.49;99308.00;1657058;85;21038;-80
2022/07/14 10:52:57;;;;;;;2.17;2.08;;;;;;;22.99;55.68;99313.84;1660884;84;21060;-83
2022/07/14 10:55:34;;;;;;;3.20;2.02;;;;;;;23.10;55.82;99312.27;1703878;84;21046;-75
2022/07/14 10:58:09;;;;;;;2.52;2.33;;;;;;;23.26;55.27;99306.31;1693497;84;21039;-80
2022/07/14 11:00:47;;;;;;;3.40;2.22;;;;;;;23.39;55.21;99310.67;1684570;85;21221;-81
2022/07/14 11:03:40;;;;;;;4.50;2.12;;;;;;;23.55;55.89;99311.39;1668929;85;21066;-75
2022/07/14 11:06:13;;;;;;;4.22;2.27;;;;;;;23.75;55.39;99302.17;1668578;85;21498;-74
2022/07/14 11:08:48;;;;;;;4.83;2.22;;;;;;;23.92;53.98;99323.91;1669097;83;21055;-78
2022/07/14 11:11:22;;;;;;;3.37;2.20;;;;;;;24.04;52.59;99318.93;1668050;85;21627;-75
2022/07/14 11:14:13;;;;;;;3.50;2.40;;;;;;;24.09;51.99;99306.33;1677432;85;21246;-76
2022/07/14 11:16:50;;;;;;;5.87;1.98;;;;;;;24.11;51.51;99328.77;1683406;85;21047;-75
2022/07/14 11:19:32;;;;;;;4.33;2.10;;;;;;;24.08;51.76;99323.37;1673632;85;20953;-79
2022/07/14 11:22:19;;;;;;;2.52;2.30;;;;;;;24.09;51.88;99322.81;1674026;84;21144;-77
2022/07/14 11:24:54;;;;;;;5.85;2.30;;;;;;;24.11;51.69;99332.32;1685213;84;21076;-78
2022/07/14 11:27:41;;;;;;;2.40;2.22;;;;;;;24.17;51.80;99319.94;1646953;86;21071;-77
2022/07/14 11:30:30;;;;;;;3.15;2.10;;;;;;;24.22;51.51;99334.81;1652978;85;21028;-76
2022/07/14 11:33:11;;;;;;;5.50;2.05;;;;;;;24.29;51.82;99323.23;1660351;85;20959;-76
2022/07/14 11:38:34;;;;;;;4.40;2.45;;;;;;;24.44;51.22;99310.69;1692236;83;21443;-77
2022/07/14 11:41:02;;;;;;;;;;;;;;;24.58;50.93;99319.32;1678501;83;21352;-72
2022/07/14 11:43:36;;;;;;;4.28;2.40;;;;;;;24.71;50.56;99312.59;1696062;83;20175;-75
2022/07/14 11:46:07;;;;;;;2.30;2.05;;;;;;;24.84;50.06;99319.64;1673855;84;21128;-80
2022/07/14 11:48:55;;;;;;;4.12;1.90;;;;;;;24.95;49.35;99326.80;1696656;84;21113;-75
2022/07/14 11:51:29;;;;;;;1.95;1.80;;;;;;;25.00;48.81;99326.55;1673794;85;21494;-76
2022/07/14 11:54:00;;;;;;;5.80;2.50;;;;;;;24.96;49.16;99311.33;1673919;85;21136;-85